Time;durP1;ratioP1;P1;durP2;ratioP2;P2;SDS_P1;SDS_P2;PMS_P1;PMS_P2;Temp;Humidity;BMP_temperature;BMP_pressure;BME280_temperature;BME280_humidity;BME280_pressure;Samples;Min_cycle;Max_cycle;Signal;HPM_P1;HPM_P2
2022/05/22 00:01:37;;;;;;;2.50;2.30;;;;;;;;;;5072867;28;20284;-87
2022/05/22 00:04:04;;;;;;;2.77;2.47;;;;;;;;;;5082089;28;20241;-85
2022/05/22 00:06:32;;;;;;;2.80;2.40;;;;;;;;;;5086455;28;20236;-87
2022/05/22 00:08:59;;;;;;;2.73;2.43;;;;;;;;;;5088898;28;20221;-83
2022/05/22 00:11:26;;;;;;;2.60;2.40;;;;;;;;;;5081538;28;20205;-87
2022/05/22 00:13:53;;;;;;;5.53;2.83;;;;;;;;;;5072811;28;20287;-87
2022/05/22 00:16:40;;;;;;;12.57;3.87;;;;;;;;;;5073371;28;20202;-87
2022/05/22 00:19:10;;;;;;;2.60;2.40;;;;;;;;;;5052192;28;20292;-87
2022/05/22 00:21:37;;;;;;;2.97;2.30;;;;;;;;;;5053110;28;20229;-86
2022/05/22 00:24:05;;;;;;;3.67;2.47;;;;;;;;;;5051821;28;20245;-87
2022/05/22 00:26:32;;;;;;;3.97;2.47;;;;;;;;;;5052904;28;20240;-87
2022/05/22 00:28:59;;;;;;;2.60;2.40;;;;;;;;;;5052016;28;20248;-87
2022/05/22 00:31:26;;;;;;;7.30;2.67;;;;;;;;;;5052934;28;20206;-87
2022/05/22 00:33:53;;;;;;;2.90;2.70;;;;;;;;;;5051870;28;20226;-86
2022/05/22 00:36:21;;;;;;;3.57;3.07;;;;;;;;;;5052469;28;20206;-88
2022/05/22 00:38:48;;;;;;;6.60;2.90;;;;;;;;;;5052055;28;20581;-87
2022/05/22 00:41:15;;;;;;;2.47;2.37;;;;;;;;;;5052739;28;20547;-87
2022/05/22 00:43:44;;;;;;;3.90;2.80;;;;;;;;;;5051555;28;20234;-87
2022/05/22 00:46:12;;;;;;;4.27;2.90;;;;;;;;;;5052840;28;20629;-88
2022/05/22 00:48:39;;;;;;;3.10;2.67;;;;;;;;;;5052198;28;20240;-87
2022/05/22 00:51:09;;;;;;;2.87;2.53;;;;;;;;;;5057826;28;20263;-87
2022/05/22 00:53:39;;;;;;;4.23;2.47;;;;;;;;;;5072912;28;20240;-87
2022/05/22 00:56:08;;;;;;;3.83;2.80;;;;;;;;;;5076518;28;20201;-87
2022/05/22 00:58:36;;;;;;;3.90;2.87;;;;;;;;;;5075624;28;20241;-87
2022/05/22 01:01:03;;;;;;;3.30;3.00;;;;;;;;;;5075759;28;20681;-87
2022/05/22 01:03:32;;;;;;;3.70;2.80;;;;;;;;;;5075519;28;20242;-87
2022/05/22 01:06:02;;;;;;;3.27;2.93;;;;;;;;;;5071558;28;20270;-87
2022/05/22 01:08:30;;;;;;;2.53;2.33;;;;;;;;;;5057695;28;20320;-87
2022/05/22 01:11:00;;;;;;;4.40;2.90;;;;;;;;;;5056013;28;20206;-87
2022/05/22 01:13:28;;;;;;;3.03;2.57;;;;;;;;;;5060593;28;20229;-87
2022/05/22 01:15:55;;;;;;;2.87;2.60;;;;;;;;;;5075942;28;20214;-87
2022/05/22 01:18:22;;;;;;;3.27;2.60;;;;;;;;;;5075152;28;20237;-87
2022/05/22 01:20:50;;;;;;;3.10;2.33;;;;;;;;;;5076031;28;20231;-88
2022/05/22 01:23:19;;;;;;;2.97;2.67;;;;;;;;;;5080259;28;20229;-88
2022/05/22 01:25:46;;;;;;;3.03;2.70;;;;;;;;;;5079791;28;20209;-85
2022/05/22 01:28:15;;;;;;;4.07;2.43;;;;;;;;;;5090965;22;21307;-84
2022/05/22 01:30:42;;;;;;;3.57;2.47;;;;;;;;;;5068806;28;20206;-84
2022/05/22 01:33:09;;;;;;;3.40;2.80;;;;;;;;;;5076068;28;20291;-84
2022/05/22 01:35:37;;;;;;;5.13;2.83;;;;;;;;;;5076519;28;20263;-83
2022/05/22 01:38:04;;;;;;;7.30;2.80;;;;;;;;;;5075720;28;20264;-83
2022/05/22 01:40:34;;;;;;;3.00;2.80;;;;;;;;;;5076444;28;20209;-83
2022/05/22 01:43:01;;;;;;;3.40;3.10;;;;;;;;;;5075631;28;20663;-84
2022/05/22 01:45:29;;;;;;;4.87;2.80;;;;;;;;;;5075646;28;20209;-83
2022/05/22 01:47:56;;;;;;;3.10;2.80;;;;;;;;;;5075140;28;20225;-84
2022/05/22 01:50:24;;;;;;;5.63;3.00;;;;;;;;;;5076494;28;20197;-83
2022/05/22 01:52:51;;;;;;;3.60;2.60;;;;;;;;;;5075649;28;20658;-84
2022/05/22 01:55:18;;;;;;;4.47;3.07;;;;;;;;;;5075417;28;20213;-84
2022/05/22 01:57:47;;;;;;;4.30;3.00;;;;;;;;;;5075477;28;20213;-84
2022/05/22 02:00:15;;;;;;;5.40;3.00;;;;;;;;;;5075738;28;20214;-84
2022/05/22 02:02:43;;;;;;;2.80;2.60;;;;;;;;;;5035965;28;20207;-84
2022/05/22 02:05:10;;;;;;;5.70;2.80;;;;;;;;;;5034222;28;20215;-83
2022/05/22 02:10:33;;;;;;;3.13;2.83;;;;;;;;;;4974346;28;20232;-83
2022/05/22 02:13:02;;;;;;;3.70;3.00;;;;;;;;;;5020406;28;20812;-84
2022/05/22 02:15:29;;;;;;;4.87;3.00;;;;;;;;;;5035696;28;20671;-84
2022/05/22 02:17:57;;;;;;;5.10;2.90;;;;;;;;;;5035266;28;20583;-83
2022/05/22 02:20:24;;;;;;;5.87;3.00;;;;;;;;;;5066166;28;20343;-84
2022/05/22 02:22:52;;;;;;;3.20;2.90;;;;;;;;;;5075039;28;20197;-84
2022/05/22 02:25:22;;;;;;;3.13;2.80;;;;;;;;;;5091097;28;20224;-83
2022/05/22 02:27:49;;;;;;;3.50;2.90;;;;;;;;;;5092345;28;20213;-84
2022/05/22 02:30:19;;;;;;;3.10;2.90;;;;;;;;;;5079849;28;20213;-85
2022/05/22 02:32:46;;;;;;;3.77;2.60;;;;;;;;;;5072126;28;20217;-84
2022/05/22 02:35:14;;;;;;;5.20;3.17;;;;;;;;;;5053508;28;20257;-84
2022/05/22 02:37:41;;;;;;;6.60;2.90;;;;;;;;;;5053064;28;20300;-84
2022/05/22 02:40:09;;;;;;;3.33;2.70;;;;;;;;;;5053350;28;20536;-83
2022/05/22 02:42:39;;;;;;;5.17;3.10;;;;;;;;;;5073092;28;20229;-84
2022/05/22 02:45:07;;;;;;;2.87;2.60;;;;;;;;;;5065317;28;20233;-83
2022/05/22 02:47:35;;;;;;;3.30;3.00;;;;;;;;;;5073537;28;20205;-83
2022/05/22 02:50:03;;;;;;;3.10;2.70;;;;;;;;;;5073395;28;20217;-83
2022/05/22 02:52:30;;;;;;;4.67;3.10;;;;;;;;;;5073624;28;20225;-83
2022/05/22 02:54:57;;;;;;;3.27;2.80;;;;;;;;;;5072962;28;20689;-84
2022/05/22 02:57:25;;;;;;;3.37;2.70;;;;;;;;;;5074864;28;20210;-83
2022/05/22 02:59:52;;;;;;;3.00;2.70;;;;;;;;;;5073361;28;20249;-84
2022/05/22 03:02:20;;;;;;;2.90;2.57;;;;;;;;;;5053746;28;20202;-84
2022/05/22 03:04:48;;;;;;;2.63;2.43;;;;;;;;;;5053382;28;20355;-83
2022/05/22 03:07:16;;;;;;;3.17;2.90;;;;;;;;;;5054605;28;20301;-84
2022/05/22 03:09:44;;;;;;;4.23;2.70;;;;;;;;;;5052953;28;20241;-84
2022/05/22 03:12:12;;;;;;;3.73;2.90;;;;;;;;;;5053794;28;20202;-84
2022/05/22 03:14:43;;;;;;;3.43;3.13;;;;;;;;;;5053279;28;20237;-83
2022/05/22 03:17:10;;;;;;;4.07;2.87;;;;;;;;;;5053611;28;20212;-84
2022/05/22 03:19:37;;;;;;;4.40;2.70;;;;;;;;;;5053125;28;20717;-84
2022/05/22 03:22:06;;;;;;;4.40;3.37;;;;;;;;;;5054226;28;20202;-84
2022/05/22 03:24:33;;;;;;;3.00;2.80;;;;;;;;;;5052994;28;20283;-83
2022/05/22 03:27:02;;;;;;;3.00;2.70;;;;;;;;;;5065917;28;20201;-84
2022/05/22 03:29:29;;;;;;;2.93;2.60;;;;;;;;;;5073342;28;20609;-83
2022/05/22 03:31:56;;;;;;;3.30;3.00;;;;;;;;;;5074194;28;20213;-84
2022/05/22 03:34:23;;;;;;;3.17;2.87;;;;;;;;;;5073806;28;20696;-84
2022/05/22 03:36:51;;;;;;;3.30;3.00;;;;;;;;;;5073161;28;20734;-84
2022/05/22 03:39:19;;;;;;;4.00;2.93;;;;;;;;;;5055562;28;20253;-83
2022/05/22 03:41:52;;;;;;;2.77;2.50;;;;;;;;;;5058923;28;20229;-82
2022/05/22 03:44:23;;;;;;;3.30;3.00;;;;;;;;;;5058634;28;20775;-84
2022/05/22 03:46:53;;;;;;;5.30;3.70;;;;;;;;;;5058361;28;20210;-85
2022/05/22 03:49:28;;;;;;;3.53;2.63;;;;;;;;;;5057099;28;20244;-86
2022/05/22 03:51:56;;;;;;;3.93;2.70;;;;;;;;;;5058946;28;20209;-85
2022/05/22 03:54:24;;;;;;;2.97;2.77;;;;;;;;;;5054597;28;20241;-86
2022/05/22 03:56:51;;;;;;;2.90;2.67;;;;;;;;;;5053405;28;20206;-85
2022/05/22 03:59:18;;;;;;;3.33;2.63;;;;;;;;;;5053181;28;20319;-85
2022/05/22 04:01:45;;;;;;;2.50;2.40;;;;;;;;;;5053256;28;20610;-85
2022/05/22 04:04:13;;;;;;;4.93;2.57;;;;;;;;;;5052726;28;20236;-85
2022/05/22 04:06:40;;;;;;;2.60;2.40;;;;;;;;;;5069152;28;20201;-85
2022/05/22 04:09:08;;;;;;;3.23;2.73;;;;;;;;;;5072527;28;20237;-85
2022/05/22 04:11:40;;;;;;;2.77;2.57;;;;;;;;;;5073066;28;20209;-85
2022/05/22 04:14:07;;;;;;;2.53;2.37;;;;;;;;;;5072342;28;20774;-85
2022/05/22 04:16:34;;;;;;;3.87;2.60;;;;;;;;;;5072550;28;20546;-85
2022/05/22 04:19:01;;;;;;;4.20;2.67;;;;;;;;;;5072215;28;20262;-85
2022/05/22 04:21:28;;;;;;;3.93;3.10;;;;;;;;;;5073442;28;20235;-85
2022/05/22 04:26:41;;;;;;;3.43;2.87;;;;;;;;;;5072688;28;20255;-85
2022/05/22 04:29:08;;;;;;;3.20;2.63;;;;;;;;;;5074055;28;20716;-85
2022/05/22 04:31:35;;;;;;;4.10;2.80;;;;;;;;;;5064132;28;20198;-85
2022/05/22 04:34:02;;;;;;;6.67;2.97;;;;;;;;;;5066270;28;20282;-85
2022/05/22 04:36:28;;;;;;;3.33;2.90;;;;;;;;;;5076918;28;20274;-85
2022/05/22 04:38:56;;;;;;;5.50;2.83;;;;;;;;;;5077565;28;20298;-84
2022/05/22 04:41:23;;;;;;;2.80;2.60;;;;;;;;;;5078557;28;20206;-85
2022/05/22 04:43:51;;;;;;;3.13;2.50;;;;;;;;;;5075454;28;20263;-85
2022/05/22 04:46:18;;;;;;;2.93;2.63;;;;;;;;;;5076721;28;20201;-85
2022/05/22 04:48:45;;;;;;;4.17;2.93;;;;;;;;;;5075664;28;20237;-85
2022/05/22 04:51:13;;;;;;;2.63;2.43;;;;;;;;;;5076119;28;20227;-85
2022/05/22 04:53:40;;;;;;;3.10;2.80;;;;;;;;;;5075670;28;20241;-85
2022/05/22 04:56:07;;;;;;;3.57;2.90;;;;;;;;;;5076328;28;20271;-85
2022/05/22 04:58:34;;;;;;;3.60;3.27;;;;;;;;;;5076567;28;20291;-85
2022/05/22 05:01:06;;;;;;;3.53;3.27;;;;;;;;;;5074625;28;20953;-85
2022/05/22 05:03:33;;;;;;;6.27;3.43;;;;;;;;;;5055908;28;20234;-85
2022/05/22 05:06:01;;;;;;;3.90;3.50;;;;;;;;;;5056418;28;20279;-85
2022/05/22 05:08:29;;;;;;;3.67;3.37;;;;;;;;;;5056407;28;20245;-85
2022/05/22 05:10:57;;;;;;;3.70;3.40;;;;;;;;;;5056077;28;20210;-85
2022/05/22 05:13:24;;;;;;;4.70;4.17;;;;;;;;;;5055632;28;20266;-85
2022/05/22 05:16:05;;;;;;;4.17;3.77;;;;;;;;;;5062969;28;20201;-85
2022/05/22 05:18:35;;;;;;;4.20;3.80;;;;;;;;;;5075351;28;20237;-85
2022/05/22 05:21:03;;;;;;;15.60;5.13;;;;;;;;;;5076896;28;20296;-85
2022/05/22 05:23:30;;;;;;;7.20;3.80;;;;;;;;;;5074887;28;20278;-85
2022/05/22 05:25:58;;;;;;;4.77;4.37;;;;;;;;;;5074615;28;20255;-85
2022/05/22 05:28:26;;;;;;;8.77;4.40;;;;;;;;;;5083962;28;20273;-85
2022/05/22 05:30:52;;;;;;;4.77;4.37;;;;;;;;;;5076306;28;20205;-85
2022/05/22 05:33:19;;;;;;;4.60;4.20;;;;;;;;;;5074798;28;20238;-85
2022/05/22 05:35:48;;;;;;;5.33;4.10;;;;;;;;;;5075249;28;20213;-85
2022/05/22 05:38:15;;;;;;;6.20;4.30;;;;;;;;;;5074284;28;20287;-85
2022/05/22 05:40:42;;;;;;;5.87;4.70;;;;;;;;;;5074250;28;20677;-85
2022/05/22 05:43:09;;;;;;;5.63;4.50;;;;;;;;;;5073948;28;20233;-85
2022/05/22 05:45:36;;;;;;;4.93;4.43;;;;;;;;;;5075437;28;20210;-84
2022/05/22 05:48:04;;;;;;;4.77;4.17;;;;;;;;;;5074704;28;20286;-85
2022/05/22 05:50:31;;;;;;;4.23;3.83;;;;;;;;;;5075944;28;20206;-84
2022/05/22 05:53:01;;;;;;;4.73;3.80;;;;;;;;;;5057169;28;20300;-84
2022/05/22 05:55:29;;;;;;;4.83;4.27;;;;;;;;;;5057696;28;20302;-85
2022/05/22 05:57:56;;;;;;;4.33;3.97;;;;;;;;;;5061255;28;20222;-86
2022/05/22 06:00:24;;;;;;;4.73;3.57;;;;;;;;;;5054524;28;20208;-86
2022/05/22 06:02:52;;;;;;;4.77;4.37;;;;;;;;;;5053654;28;20210;-87
2022/05/22 06:05:19;;;;;;;4.40;4.00;;;;;;;;;;5051848;28;20621;-86
2022/05/22 06:07:49;;;;;;;4.30;3.47;;;;;;;;;;5049387;28;20206;-86
2022/05/22 06:10:17;;;;;;;5.33;4.00;;;;;;;;;;5054151;28;20713;-85
2022/05/22 06:12:46;;;;;;;5.53;3.63;;;;;;;;;;5053298;28;20301;-86
2022/05/22 06:15:13;;;;;;;3.20;3.00;;;;;;;;;;5053667;28;20237;-86
2022/05/22 06:17:43;;;;;;;3.83;3.50;;;;;;;;;;5048976;28;20276;-86
2022/05/22 06:20:11;;;;;;;5.80;3.43;;;;;;;;;;5033674;28;20689;-86
2022/05/22 06:22:39;;;;;;;6.97;3.30;;;;;;;;;;5033419;28;20261;-86
2022/05/22 06:25:07;;;;;;;3.73;3.30;;;;;;;;;;5033235;28;20214;-85
2022/05/22 06:27:36;;;;;;;3.17;2.83;;;;;;;;;;5033913;28;20187;-86
2022/05/22 06:30:04;;;;;;;2.77;2.57;;;;;;;;;;5033169;28;20309;-85
2022/05/22 06:32:32;;;;;;;3.57;3.27;;;;;;;;;;5034508;28;20194;-85
2022/05/22 06:34:59;;;;;;;4.27;2.97;;;;;;;;;;5034652;28;20289;-86
2022/05/22 06:37:34;;;;;;;3.60;3.10;;;;;;;;;;5036113;28;20734;-85
2022/05/22 06:40:00;;;;;;;6.97;2.97;;;;;;;;;;5037306;28;20245;-86
2022/05/22 06:42:28;;;;;;;3.60;2.80;;;;;;;;;;5035066;28;20555;-85
2022/05/22 06:44:58;;;;;;;4.30;2.97;;;;;;;;;;5032993;28;20714;-85
2022/05/22 06:47:25;;;;;;;4.83;2.67;;;;;;;;;;5033205;28;20218;-85
2022/05/22 06:49:52;;;;;;;2.93;2.53;;;;;;;;;;5032517;28;20234;-85
2022/05/22 06:52:20;;;;;;;2.70;2.50;;;;;;;;;;5032812;28;20214;-85
2022/05/22 06:54:47;;;;;;;5.43;2.57;;;;;;;;;;5032040;28;20777;-86
2022/05/22 06:57:15;;;;;;;5.63;2.50;;;;;;;;;;5033656;28;20261;-86
2022/05/22 06:59:43;;;;;;;3.33;2.50;;;;;;;;;;5032078;28;20238;-86
2022/05/22 07:02:11;;;;;;;3.00;2.70;;;;;;;;;;5033033;28;20667;-86
2022/05/22 07:04:38;;;;;;;2.47;2.20;;;;;;;;;;5032379;28;20299;-87
2022/05/22 07:07:06;;;;;;;3.55;2.70;;;;;;;;;;5032933;28;20215;-86
2022/05/22 07:09:33;;;;;;;5.20;2.30;;;;;;;;;;5032110;28;20246;-86
2022/05/22 07:12:00;;;;;;;2.45;2.00;;;;;;;;;;5032779;28;20203;-86
2022/05/22 07:14:28;;;;;;;2.15;2.00;;;;;;;;;;5031995;28;20720;-86
2022/05/22 07:16:55;;;;;;;3.35;2.55;;;;;;;;;;5033122;28;20199;-85
2022/05/22 07:19:24;;;;;;;2.53;2.13;;;;;;;;;;5032431;28;20238;-87
2022/05/22 07:21:51;;;;;;;1.95;1.85;;;;;;;;;;5032948;28;20273;-87
2022/05/22 07:24:18;;;;;;;2.20;2.00;;;;;;;;;;5032034;28;20256;-86
2022/05/22 07:26:45;;;;;;;5.07;2.00;;;;;;;;;;5032436;28;20211;-86
2022/05/22 07:29:12;;;;;;;2.60;1.95;;;;;;;;;;5031902;28;20242;-86
2022/05/22 07:31:40;;;;;;;6.50;1.95;;;;;;;;;;5032792;28;20206;-86
2022/05/22 07:34:07;;;;;;;2.83;2.53;;;;;;;;;;5032081;28;20300;-86
2022/05/22 07:36:35;;;;;;;4.05;2.30;;;;;;;;;;5033048;28;20202;-85
2022/05/22 07:39:02;;;;;;;4.45;2.30;;;;;;;;;;5032690;28;20249;-85
2022/05/22 07:41:30;;;;;;;2.42;1.83;;;;;;;;;;5032679;28;20695;-86
2022/05/22 07:43:58;;;;;;;2.50;2.00;;;;;;;;;;5041940;28;20309;-85
2022/05/22 07:46:48;;;;;;;2.70;1.65;;;;;;;;;;5089824;23;20241;-83
2022/05/22 07:51:58;;;;;;;3.88;1.92;;;;;;;;;;5073237;28;20204;-80
2022/05/22 07:54:25;;;;;;;3.30;2.00;;;;;;;;;;5073567;28;20260;-80
2022/05/22 07:56:54;;;;;;;2.38;1.90;;;;;;;;;;5074523;28;20201;-81
2022/05/22 07:59:21;;;;;;;4.32;1.90;;;;;;;;;;5074682;28;20312;-81
2022/05/22 08:01:48;;;;;;;2.60;1.83;;;;;;;;;;5074928;28;20615;-83
2022/05/22 08:04:15;;;;;;;2.17;1.70;;;;;;;;;;5068745;28;20712;-84
2022/05/22 08:06:42;;;;;;;1.60;1.50;;;;;;;;;;5053913;28;20332;-85
2022/05/22 08:09:22;;;;;;;3.92;1.65;;;;;;;;;;5052999;28;20241;-82
2022/05/22 08:11:49;;;;;;;1.92;1.77;;;;;;;;;;5054044;28;20240;-81
2022/05/22 08:14:16;;;;;;;3.03;2.00;;;;;;;;;;5053761;28;20237;-84
2022/05/22 08:16:43;;;;;;;4.28;1.90;;;;;;;;;;5053820;28;20576;-82
2022/05/22 08:19:10;;;;;;;3.05;2.22;;;;;;;;;;5054268;28;20367;-83
2022/05/22 08:21:37;;;;;;;2.22;1.80;;;;;;;;;;5054501;28;20230;-82
2022/05/22 08:24:13;;;;;;;2.55;2.13;;;;;;;;;;5054517;28;20279;-82
2022/05/22 08:27:10;;;;;;;2.72;1.67;;;;;;;;;;5072062;28;20214;-89
2022/05/22 08:29:46;;;;;;;4.32;2.05;;;;;;;;;;5077660;28;20233;-87
2022/05/22 08:32:17;;;;;;;5.82;1.95;;;;;;;;;;5058790;28;20194;-84
2022/05/22 08:34:45;;;;;;;4.75;2.00;;;;;;;;;;5054397;28;20237;-77
2022/05/22 08:37:12;;;;;;;4.05;2.10;;;;;;;;;;5034725;28;20207;-78
2022/05/22 08:39:39;;;;;;;4.45;2.10;;;;;;;;;;5034699;28;20230;-78
2022/05/22 08:42:09;;;;;;;2.00;1.80;;;;;;;;;;5047572;28;20604;-77
2022/05/22 08:44:36;;;;;;;3.05;1.60;;;;;;;;;;5052838;28;20673;-77
2022/05/22 08:47:07;;;;;;;5.45;1.70;;;;;;;;;;5054189;28;20205;-78
2022/05/22 08:49:39;;;;;;;2.60;1.70;;;;;;;;;;5053380;28;20237;-78
2022/05/22 08:52:15;;;;;;;6.88;1.95;;;;;;;;;;5054375;28;20206;-79
2022/05/22 08:54:43;;;;;;;2.78;1.30;;;;;;;;;;5053784;28;20243;-79
2022/05/22 09:00:00;;;;;;;5.55;1.60;;;;;;;;;;5039802;28;20288;-78
2022/05/22 09:02:33;;;;;;;2.53;1.63;;;;;;;;;;5031217;28;20675;-78
2022/05/22 09:05:02;;;;;;;3.63;1.55;;;;;;;;;;5045747;28;20266;-79
2022/05/22 09:07:35;;;;;;;4.97;1.60;;;;;;;;;;5051220;28;20663;-79
2022/05/22 09:10:05;;;;;;;3.45;1.67;;;;;;;;;;5050623;28;20650;-78
2022/05/22 09:12:43;;;;;;;2.78;1.50;;;;;;;;;;5051684;28;20238;-79
2022/05/22 09:15:13;;;;;;;3.90;1.30;;;;;;;;;;5053731;28;20279;-80
2022/05/22 09:17:44;;;;;;;3.33;1.52;;;;;;;;;;5056282;28;20202;-80
2022/05/22 09:20:17;;;;;;;2.97;1.80;;;;;;;;;;5055238;28;20635;-80
2022/05/22 09:22:51;;;;;;;4.25;1.33;;;;;;;;;;5055038;28;20210;-81
2022/05/22 09:25:20;;;;;;;4.68;1.65;;;;;;;;;;5035898;28;20297;-81
2022/05/22 09:27:51;;;;;;;3.85;1.70;;;;;;;;;;5036927;28;20206;-79
2022/05/22 09:30:23;;;;;;;1.50;1.15;;;;;;;;;;5035695;28;20643;-80
2022/05/22 09:33:02;;;;;;;3.58;1.85;;;;;;;;;;5042834;28;20616;-81
2022/05/22 09:35:35;;;;;;;2.95;1.40;;;;;;;;;;5036007;28;20238;-79
2022/05/22 09:38:11;;;;;;;4.40;1.75;;;;;;;;;;5034517;28;20296;-77
2022/05/22 09:40:42;;;;;;;2.33;1.42;;;;;;;;;;5037921;28;20190;-81
2022/05/22 09:43:18;;;;;;;1.80;1.50;;;;;;;;;;5038884;28;20249;-83
2022/05/22 09:45:52;;;;;;;5.18;2.08;;;;;;;;;;5036685;28;20603;-79
2022/05/22 09:48:29;;;;;;;3.28;1.38;;;;;;;;;;5034802;28;20239;-79
2022/05/22 09:50:59;;;;;;;3.88;1.33;;;;;;;;;;5034111;28;20183;-79
2022/05/22 09:53:33;;;;;;;2.80;1.85;;;;;;;;;;5039668;28;20280;-82
2022/05/22 09:56:04;;;;;;;1.58;1.02;;;;;;;;;;5044852;28;20914;-82
2022/05/22 09:58:40;;;;;;;1.45;1.33;;;;;;;;;;5040517;28;20239;-81
2022/05/22 10:01:11;;;;;;;4.95;1.60;;;;;;;;;;5037834;28;20249;-81
2022/05/22 10:03:42;;;;;;;2.45;1.23;;;;;;;;;;5044276;28;20309;-82
2022/05/22 10:06:13;;;;;;;3.58;1.80;;;;;;;;;;5057944;28;20238;-81
2022/05/22 10:08:47;;;;;;;1.73;1.20;;;;;;;;;;5057571;28;20614;-82
2022/05/22 10:11:17;;;;;;;3.08;1.20;;;;;;;;;;5057603;28;20186;-81
2022/05/22 10:13:53;;;;;;;2.70;1.23;;;;;;;;;;5058926;28;20233;-81
2022/05/22 10:16:25;;;;;;;4.40;1.50;;;;;;;;;;5056989;28;20248;-82
2022/05/22 10:18:59;;;;;;;2.40;1.27;;;;;;;;;;5056588;28;20251;-82
2022/05/22 10:21:28;;;;;;;3.70;1.30;;;;;;;;;;5055434;28;20190;-81
2022/05/22 10:24:09;;;;;;;3.15;1.13;;;;;;;;;;5055414;28;20303;-81
2022/05/22 10:26:45;;;;;;;3.40;1.05;;;;;;;;;;5056093;28;20304;-79
2022/05/22 10:29:17;;;;;;;4.07;1.23;;;;;;;;;;5048527;28;20713;-82
2022/05/22 10:31:47;;;;;;;1.65;1.40;;;;;;;;;;5058014;28;20202;-81
2022/05/22 10:34:21;;;;;;;1.65;1.17;;;;;;;;;;5035473;28;20238;-80
2022/05/22 10:36:51;;;;;;;1.85;1.20;;;;;;;;;;5053670;28;20214;-80
2022/05/22 10:39:19;;;;;;;2.10;1.30;;;;;;;;;;5045916;28;20284;-80
2022/05/22 10:44:39;;;;;;;2.15;1.00;;;;;;;;;;5060171;28;20252;-80
2022/05/22 10:47:07;;;;;;;1.30;1.20;;;;;;;;;;5057950;28;20224;-81
2022/05/22 10:49:39;;;;;;;2.13;1.40;;;;;;;;;;5056394;28;20241;-81
2022/05/22 10:52:07;;;;;;;3.00;1.38;;;;;;;;;;5060120;28;20268;-82
2022/05/22 10:54:35;;;;;;;2.05;1.15;;;;;;;;;;5058337;28;20238;-83
2022/05/22 10:57:10;;;;;;;1.83;1.17;;;;;;;;;;5057767;28;20214;-79
2022/05/22 10:59:37;;;;;;;2.92;1.40;;;;;;;;;;5066644;28;20236;-83
2022/05/22 11:02:05;;;;;;;2.78;1.60;;;;;;;;;;5065947;28;20202;-82
2022/05/22 11:04:37;;;;;;;2.03;1.25;;;;;;;;;;5080133;28;20256;-81
2022/05/22 11:07:06;;;;;;;3.83;1.40;;;;;;;;;;5080919;28;20224;-80
2022/05/22 11:09:34;;;;;;;2.65;1.25;;;;;;;;;;5061923;28;20276;-80
2022/05/22 11:12:05;;;;;;;2.67;1.67;;;;;;;;;;5056675;28;20210;-79
2022/05/22 11:14:45;;;;;;;7.72;1.40;;;;;;;;;;5055403;28;20280;-81
2022/05/22 11:17:13;;;;;;;1.98;1.27;;;;;;;;;;5056317;28;20229;-82
2022/05/22 11:19:40;;;;;;;1.65;1.40;;;;;;;;;;5053948;28;20299;-79
2022/05/22 11:22:17;;;;;;;1.27;0.98;;;;;;;;;;5054675;28;20704;-80
2022/05/22 11:24:51;;;;;;;1.80;1.45;;;;;;;;;;5052218;28;20664;-80
2022/05/22 11:27:26;;;;;;;1.60;1.40;;;;;;;;;;5054046;28;20630;-80
2022/05/22 11:30:02;;;;;;;1.40;1.33;;;;;;;;;;5050959;28;20225;-79
2022/05/22 11:32:34;;;;;;;2.55;1.40;;;;;;;;;;5032809;28;20225;-80
2022/05/22 11:35:08;;;;;;;2.03;1.20;;;;;;;;;;5032911;28;20718;-79
2022/05/22 11:37:41;;;;;;;2.25;1.15;;;;;;;;;;5032811;28;20282;-79
2022/05/22 11:40:18;;;;;;;2.08;1.20;;;;;;;;;;5033363;28;20936;-80
2022/05/22 11:42:45;;;;;;;1.58;0.75;;;;;;;;;;5033777;28;20253;-81
2022/05/22 11:45:20;;;;;;;3.50;1.38;;;;;;;;;;5034193;28;20242;-81
2022/05/22 11:48:11;;;;;;;4.35;1.17;;;;;;;;;;5052389;28;20676;-80
2022/05/22 11:50:40;;;;;;;3.15;1.20;;;;;;;;;;5035943;28;20228;-80
2022/05/22 11:53:27;;;;;;;3.67;1.70;;;;;;;;;;5057232;28;20241;-81
2022/05/22 11:56:02;;;;;;;4.40;3.00;;;;;;;;;;5055992;28;20378;-81
2022/05/22 11:58:33;;;;;;;4.28;1.50;;;;;;;;;;5054295;28;20237;-81
2022/05/22 12:01:06;;;;;;;1.88;1.27;;;;;;;;;;5055654;28;20206;-83
2022/05/22 12:03:46;;;;;;;2.83;1.45;;;;;;;;;;5071440;28;20230;-81
2022/05/22 12:06:19;;;;;;;2.80;1.33;;;;;;;;;;5038859;28;20548;-81
2022/05/22 12:08:57;;;;;;;2.33;1.15;;;;;;;;;;5041392;28;20263;-79
2022/05/22 12:11:29;;;;;;;1.30;1.20;;;;;;;;;;5079567;28;20288;-80
2022/05/22 12:13:59;;;;;;;5.55;1.40;;;;;;;;;;5075906;28;20241;-81
2022/05/22 12:16:29;;;;;;;1.50;1.40;;;;;;;;;;5076015;28;20236;-79
2022/05/22 12:19:02;;;;;;;2.55;1.38;;;;;;;;;;5076549;28;20263;-80
2022/05/22 12:21:31;;;;;;;1.40;1.30;;;;;;;;;;5077563;28;20186;-79
2022/05/22 12:24:06;;;;;;;1.73;1.20;;;;;;;;;;5075691;28;20244;-80
2022/05/22 12:26:33;;;;;;;1.20;1.08;;;;;;;;;;5072421;28;20315;-80
2022/05/22 12:29:01;;;;;;;1.23;1.10;;;;;;;;;;5074975;28;20283;-80
2022/05/22 12:31:32;;;;;;;1.60;1.20;;;;;;;;;;5049779;28;20272;-79
2022/05/22 12:34:03;;;;;;;2.15;1.33;;;;;;;;;;5035329;28;20238;-80
2022/05/22 12:36:31;;;;;;;1.63;1.15;;;;;;;;;;5054608;28;20759;-82
2022/05/22 12:39:02;;;;;;;3.30;1.27;;;;;;;;;;5056193;28;20230;-83
2022/05/22 12:41:35;;;;;;;2.97;1.67;;;;;;;;;;5038793;28;20202;-85
2022/05/22 12:44:03;;;;;;;2.88;1.60;;;;;;;;;;5054426;28;20249;-82
2022/05/22 12:46:30;;;;;;;1.50;0.98;;;;;;;;;;5048438;28;20234;-82
2022/05/22 12:49:05;;;;;;;3.38;1.40;;;;;;;;;;5054940;28;20241;-82
2022/05/22 12:51:33;;;;;;;2.35;1.20;;;;;;;;;;5064515;28;20202;-83
2022/05/22 12:54:10;;;;;;;1.48;0.90;;;;;;;;;;5063391;28;20230;-85
2022/05/22 12:56:41;;;;;;;2.47;1.20;;;;;;;;;;5062874;28;20234;-84
2022/05/22 12:59:18;;;;;;;2.80;1.30;;;;;;;;;;5060783;28;20242;-83
2022/05/22 13:01:46;;;;;;;2.42;1.05;;;;;;;;;;5050932;28;20229;-83
2022/05/22 13:04:23;;;;;;;3.22;1.25;;;;;;;;;;5053404;28;20260;-84
2022/05/22 13:06:51;;;;;;;2.00;1.10;;;;;;;;;;5043424;28;20293;-83
2022/05/22 13:09:35;;;;;;;3.30;1.38;;;;;;;;;;5062712;28;20248;-83
2022/05/22 13:12:04;;;;;;;0.88;0.85;;;;;;;;;;5061784;28;20225;-82
2022/05/22 13:14:32;;;;;;;3.75;1.30;;;;;;;;;;5061398;28;20279;-82
2022/05/22 13:17:00;;;;;;;1.88;1.75;;;;;;;;;;5061540;28;20252;-82
2022/05/22 13:19:29;;;;;;;1.98;1.20;;;;;;;;;;5060899;28;20234;-81
2022/05/22 13:21:57;;;;;;;3.28;1.13;;;;;;;;;;5052562;28;20350;-82
2022/05/22 13:24:30;;;;;;;1.30;1.10;;;;;;;;;;5060452;28;20669;-83
2022/05/22 13:27:02;;;;;;;2.55;1.23;;;;;;;;;;5046508;28;20207;-82
2022/05/22 13:29:31;;;;;;;2.50;1.05;;;;;;;;;;5055463;28;20319;-82
2022/05/22 13:31:59;;;;;;;6.18;1.50;;;;;;;;;;5042452;28;20687;-82
2022/05/22 13:34:30;;;;;;;7.13;1.60;;;;;;;;;;5054146;28;20317;-82
2022/05/22 13:36:59;;;;;;;1.60;1.17;;;;;;;;;;5040495;28;20599;-82
2022/05/22 13:39:31;;;;;;;2.58;1.40;;;;;;;;;;5048080;28;20225;-81
2022/05/22 13:42:15;;;;;;;3.55;1.20;;;;;;;;;;5060473;28;20274;-83
2022/05/22 13:47:41;;;;;;;3.85;1.20;;;;;;;;;;5037996;28;20232;-84
2022/05/22 13:53:12;;;;;;;2.42;1.00;;;;;;;;;;5018493;28;20338;-84
2022/05/22 13:55:42;;;;;;;2.35;1.30;;;;;;;;;;5033080;28;20760;-83
2022/05/22 13:58:13;;;;;;;3.13;1.20;;;;;;;;;;5035585;28;20288;-83
2022/05/22 14:00:41;;;;;;;0.98;0.95;;;;;;;;;;5035525;28;20560;-83
2022/05/22 14:03:10;;;;;;;1.23;0.88;;;;;;;;;;5035986;28;20238;-81
2022/05/22 14:05:38;;;;;;;2.35;0.98;;;;;;;;;;5039133;28;20230;-83
2022/05/22 14:08:09;;;;;;;2.15;1.10;;;;;;;;;;5035090;28;20269;-83
2022/05/22 14:10:37;;;;;;;2.25;1.33;;;;;;;;;;5035855;28;20222;-83
2022/05/22 14:13:14;;;;;;;3.60;1.13;;;;;;;;;;5034467;28;20303;-84
2022/05/22 14:15:41;;;;;;;6.25;1.38;;;;;;;;;;5035544;28;20257;-83
2022/05/22 14:18:14;;;;;;;2.90;1.30;;;;;;;;;;5036325;28;20242;-82
2022/05/22 14:20:42;;;;;;;2.05;1.17;;;;;;;;;;5033998;28;20249;-84
2022/05/22 14:23:10;;;;;;;1.65;1.23;;;;;;;;;;5035410;28;20889;-81
2022/05/22 14:25:39;;;;;;;1.58;1.05;;;;;;;;;;5037547;28;20233;-84
2022/05/22 14:28:07;;;;;;;2.88;1.90;;;;;;;;;;5034452;28;20322;-84
2022/05/22 14:30:36;;;;;;;2.63;1.20;;;;;;;;;;5033902;28;20238;-85
2022/05/22 14:33:07;;;;;;;1.35;1.00;;;;;;;;;;5033154;28;20242;-85
2022/05/22 14:35:36;;;;;;;2.83;1.13;;;;;;;;;;5033003;28;20304;-83
2022/05/22 14:38:10;;;;;;;1.55;0.82;;;;;;;;;;5032798;28;20238;-83
2022/05/22 14:40:43;;;;;;;3.25;1.25;;;;;;;;;;5034073;28;20195;-84
2022/05/22 14:43:11;;;;;;;4.75;1.15;;;;;;;;;;5032747;28;20245;-85
2022/05/22 14:45:41;;;;;;;2.70;1.23;;;;;;;;;;5032874;28;20283;-85
2022/05/22 14:48:10;;;;;;;1.67;1.25;;;;;;;;;;5031928;28;20788;-84
2022/05/22 14:50:37;;;;;;;1.42;1.15;;;;;;;;;;5034057;28;20202;-84
2022/05/22 14:53:06;;;;;;;3.03;1.30;;;;;;;;;;5033277;28;20238;-86
2022/05/22 14:55:36;;;;;;;1.27;1.17;;;;;;;;;;5033743;28;20223;-83
2022/05/22 14:58:07;;;;;;;1.92;1.13;;;;;;;;;;5027754;28;20247;-83
2022/05/22 15:00:36;;;;;;;4.47;2.95;;;;;;;;;;5035016;28;20282;-82
2022/05/22 15:03:07;;;;;;;2.17;1.70;;;;;;;;;;5033664;28;20319;-84
2022/05/22 15:05:36;;;;;;;4.43;1.35;;;;;;;;;;5034026;28;20261;-83
2022/05/22 15:08:05;;;;;;;1.67;1.08;;;;;;;;;;5034542;28;20203;-87
2022/05/22 15:10:33;;;;;;;1.88;1.23;;;;;;;;;;5033544;28;20254;-86
2022/05/22 15:13:01;;;;;;;1.27;1.17;;;;;;;;;;5033371;28;20202;-85
2022/05/22 15:15:29;;;;;;;4.60;1.20;;;;;;;;;;5032974;28;20661;-85
2022/05/22 15:18:02;;;;;;;1.95;1.30;;;;;;;;;;5033852;28;20231;-84